sensor_id;sensor_type;location;lat;lon;timestamp;pressure;altitude;pressure_sealevel;temperature;humidity
17362;BME280;8798;51.938;4.348;2024-03-23T00:55:30;100937.63;;;8.73;94.56
17362;BME280;8798;51.938;4.348;2024-03-23T00:57:56;100914.78;;;8.69;94.62
17362;BME280;8798;51.938;4.348;2024-03-23T01:00:23;100897.44;;;8.64;94.79
17362;BME280;8798;51.938;4.348;2024-03-23T01:02:49;100878.41;;;8.57;94.75
17362;BME280;8798;51.938;4.348;2024-03-23T01:05:16;100847.81;;;8.50;94.77
17362;BME280;8798;51.938;4.348;2024-03-23T01:07:43;100819.78;;;8.44;94.46
17362;BME280;8798;51.938;4.348;2024-03-23T01:10:11;100797.91;;;8.39;94.75
17362;BME280;8798;51.938;4.348;2024-03-23T01:12:36;100781.53;;;8.32;94.72
17362;BME280;8798;51.938;4.348;2024-03-23T01:15:04;100773.09;;;8.27;95.20
17362;BME280;8798;51.938;4.348;2024-03-23T01:17:30;100751.25;;;8.22;94.71
17362;BME280;8798;51.938;4.348;2024-03-23T01:19:57;100736.44;;;8.18;94.65
17362;BME280;8798;51.938;4.348;2024-03-23T01:22:23;100725.19;;;8.14;94.99
17362;BME280;8798;51.938;4.348;2024-03-23T01:24:51;100705.22;;;8.09;94.53
17362;BME280;8798;51.938;4.348;2024-03-23T01:27:17;100692.25;;;8.04;94.86
17362;BME280;8798;51.938;4.348;2024-03-23T01:29:44;100667.03;;;7.97;94.65
17362;BME280;8798;51.938;4.348;2024-03-23T01:32:11;100662.94;;;7.93;95.11
17362;BME280;8798;51.938;4.348;2024-03-23T01:34:38;100654.22;;;7.91;94.59
17362;BME280;8798;51.938;4.348;2024-03-23T01:37:03;100640.28;;;7.87;94.58
17362;BME280;8798;51.938;4.348;2024-03-23T01:39:30;100634.34;;;7.84;95.09
17362;BME280;8798;51.938;4.348;2024-03-23T01:41:58;100630.28;;;7.80;94.77
17362;BME280;8798;51.938;4.348;2024-03-23T01:44:25;100611.00;;;7.76;94.96
17362;BME280;8798;51.938;4.348;2024-03-23T01:46:51;100605.94;;;7.73;94.96
17362;BME280;8798;51.938;4.348;2024-03-23T01:49:18;100592.97;;;7.68;94.65
17362;BME280;8798;51.938;4.348;2024-03-23T01:51:44;100591.44;;;7.66;95.41
17362;BME280;8798;51.938;4.348;2024-03-23T01:54:12;100579.34;;;7.62;95.32
17362;BME280;8798;51.938;4.348;2024-03-23T01:56:38;100567.09;;;7.59;95.02
17362;BME280;8798;51.938;4.348;2024-03-23T01:59:06;100571.75;;;7.57;94.82
17362;BME280;8798;51.938;4.348;2024-03-23T02:01:34;100560.34;;;7.55;95.39
17362;BME280;8798;51.938;4.348;2024-03-23T02:04:02;100557.97;;;7.52;95.06
17362;BME280;8798;51.938;4.348;2024-03-23T02:06:28;100547.53;;;7.49;95.18
17362;BME280;8798;51.938;4.348;2024-03-23T02:08:55;100540.63;;;7.46;94.91
17362;BME280;8798;51.938;4.348;2024-03-23T02:11:22;100539.94;;;7.44;94.88
17362;BME280;8798;51.938;4.348;2024-03-23T02:13:49;100533.19;;;7.40;95.25
17362;BME280;8798;51.938;4.348;2024-03-23T02:16:17;100539.38;;;7.41;95.37
17362;BME280;8798;51.938;4.348;2024-03-23T02:18:44;100544.72;;;7.41;94.82
17362;BME280;8798;51.938;4.348;2024-03-23T02:21:10;100560.75;;;7.41;94.44
17362;BME280;8798;51.938;4.348;2024-03-23T02:23:38;100553.72;;;7.40;95.26
17362;BME280;8798;51.938;4.348;2024-03-23T02:26:04;100557.34;;;7.39;94.52
17362;BME280;8798;51.938;4.348;2024-03-23T02:28:31;100556.66;;;7.37;94.94
17362;BME280;8798;51.938;4.348;2024-03-23T02:30:57;100550.63;;;7.35;95.19
17362;BME280;8798;51.938;4.348;2024-03-23T02:33:24;100545.53;;;7.31;94.88
17362;BME280;8798;51.938;4.348;2024-03-23T02:35:50;100555.38;;;7.31;94.70
17362;BME280;8798;51.938;4.348;2024-03-23T02:38:17;100558.06;;;7.31;94.75
17362;BME280;8798;51.938;4.348;2024-03-23T02:40:44;100556.50;;;7.28;95.08
17362;BME280;8798;51.938;4.348;2024-03-23T02:43:11;100550.44;;;7.26;94.42
17362;BME280;8798;51.938;4.348;2024-03-23T02:45:37;100551.28;;;7.27;95.27
17362;BME280;8798;51.938;4.348;2024-03-23T02:48:05;100551.44;;;7.25;95.38
17362;BME280;8798;51.938;4.348;2024-03-23T02:50:31;100554.25;;;7.24;95.04
17362;BME280;8798;51.938;4.348;2024-03-23T02:52:58;100543.84;;;7.21;94.77
17362;BME280;8798;51.938;4.348;2024-03-23T02:55:24;100549.31;;;7.19;95.61
17362;BME280;8798;51.938;4.348;2024-03-23T02:57:52;100539.75;;;7.17;95.58
17362;BME280;8798;51.938;4.348;2024-03-23T03:00:18;100545.25;;;7.15;95.12
17362;BME280;8798;51.938;4.348;2024-03-23T03:02:45;100527.66;;;7.13;94.63
17362;BME280;8798;51.938;4.348;2024-03-23T03:05:11;100540.16;;;7.12;94.98
17362;BME280;8798;51.938;4.348;2024-03-23T03:07:39;100542.97;;;7.10;94.74
17362;BME280;8798;51.938;4.348;2024-03-23T03:10:06;100537.75;;;7.09;94.55
17362;BME280;8798;51.938;4.348;2024-03-23T03:12:36;100539.72;;;7.07;94.56
17362;BME280;8798;51.938;4.348;2024-03-23T03:15:05;100531.97;;;7.04;95.39
17362;BME280;8798;51.938;4.348;2024-03-23T03:17:33;100527.63;;;7.03;95.31
17362;BME280;8798;51.938;4.348;2024-03-23T03:19:58;100527.63;;;7.03;94.77
17362;BME280;8798;51.938;4.348;2024-03-23T03:22:25;100544.63;;;7.02;94.95
17362;BME280;8798;51.938;4.348;2024-03-23T03:24:51;100546.19;;;7.04;95.44
17362;BME280;8798;51.938;4.348;2024-03-23T03:27:18;100562.06;;;7.06;94.97
17362;BME280;8798;51.938;4.348;2024-03-23T03:29:45;100567.41;;;7.06;94.83
17362;BME280;8798;51.938;4.348;2024-03-23T03:32:13;100574.44;;;7.07;95.54
17362;BME280;8798;51.938;4.348;2024-03-23T03:34:39;100577.97;;;7.07;95.05
17362;BME280;8798;51.938;4.348;2024-03-23T03:37:06;100586.81;;;7.08;94.94
17362;BME280;8798;51.938;4.348;2024-03-23T03:39:32;100596.50;;;7.09;95.08
17362;BME280;8798;51.938;4.348;2024-03-23T03:41:59;100588.66;;;7.07;94.79
17362;BME280;8798;51.938;4.348;2024-03-23T03:44:27;100598.47;;;7.07;95.06
17362;BME280;8798;51.938;4.348;2024-03-23T03:46:54;100600.19;;;7.08;94.33
17362;BME280;8798;51.938;4.348;2024-03-23T03:49:21;100601.13;;;7.07;95.60
17362;BME280;8798;51.938;4.348;2024-03-23T03:51:49;100611.81;;;7.07;95.22
17362;BME280;8798;51.938;4.348;2024-03-23T03:54:15;100605.63;;;7.06;94.59
17362;BME280;8798;51.938;4.348;2024-03-23T03:56:41;100617.16;;;7.07;95.13
17362;BME280;8798;51.938;4.348;2024-03-23T03:59:09;100621.66;;;7.06;95.43
17362;BME280;8798;51.938;4.348;2024-03-23T04:01:36;100621.94;;;7.03;95.66
17362;BME280;8798;51.938;4.348;2024-03-23T04:04:01;100619.28;;;7.03;95.30
17362;BME280;8798;51.938;4.348;2024-03-23T04:06:30;100622.06;;;7.02;95.01
17362;BME280;8798;51.938;4.348;2024-03-23T04:08:56;100615.88;;;7.01;95.00
17362;BME280;8798;51.938;4.348;2024-03-23T04:11:23;100620.50;;;6.99;94.62
17362;BME280;8798;51.938;4.348;2024-03-23T04:13:48;100619.66;;;6.99;95.58
17362;BME280;8798;51.938;4.348;2024-03-23T04:16:24;100610.09;;;6.96;95.65
17362;BME280;8798;51.938;4.348;2024-03-23T04:18:51;100618.25;;;6.95;94.73
17362;BME280;8798;51.938;4.348;2024-03-23T04:21:17;100604.19;;;6.93;94.60
17362;BME280;8798;51.938;4.348;2024-03-23T04:23:45;100600.66;;;6.92;95.41
17362;BME280;8798;51.938;4.348;2024-03-23T04:26:12;100598.28;;;6.89;95.75
17362;BME280;8798;51.938;4.348;2024-03-23T04:28:38;100595.75;;;6.87;95.52
17362;BME280;8798;51.938;4.348;2024-03-23T04:31:05;100592.50;;;6.84;95.50
17362;BME280;8798;51.938;4.348;2024-03-23T04:33:31;100598.81;;;6.83;94.85
17362;BME280;8798;51.938;4.348;2024-03-23T04:35:58;100593.47;;;6.83;95.26
17362;BME280;8798;51.938;4.348;2024-03-23T04:38:24;100596.16;;;6.83;95.19
17362;BME280;8798;51.938;4.348;2024-03-23T04:40:55;100603.28;;;6.82;94.72
17362;BME280;8798;51.938;4.348;2024-03-23T04:43:22;100606.81;;;6.83;95.23
17362;BME280;8798;51.938;4.348;2024-03-23T04:45:49;100618.22;;;6.85;95.22
17362;BME280;8798;51.938;4.348;2024-03-23T04:48:16;100627.78;;;6.87;95.38
17362;BME280;8798;51.938;4.348;2024-03-23T04:50:43;100644.50;;;6.89;95.33
17362;BME280;8798;51.938;4.348;2024-03-23T04:53:09;100654.22;;;6.91;95.52
17362;BME280;8798;51.938;4.348;2024-03-23T04:55:36;100662.06;;;6.92;95.70
17362;BME280;8798;51.938;4.348;2024-03-23T04:58:04;100675.19;;;6.95;95.39
17362;BME280;8798;51.938;4.348;2024-03-23T05:00:31;100695.28;;;6.99;95.50
17362;BME280;8798;51.938;4.348;2024-03-23T05:02:57;100725.81;;;7.06;94.41
17362;BME280;8798;51.938;4.348;2024-03-23T05:05:24;100760.88;;;7.13;95.34
17362;BME280;8798;51.938;4.348;2024-03-23T05:07:50;100793.94;;;7.22;94.66
17362;BME280;8798;51.938;4.348;2024-03-23T05:10:17;100807.91;;;7.25;95.28
17362;BME280;8798;51.938;4.348;2024-03-23T05:12:43;100833.38;;;7.29;94.65
17362;BME280;8798;51.938;4.348;2024-03-23T05:15:12;100849.97;;;7.33;95.29
17362;BME280;8798;51.938;4.348;2024-03-23T05:17:38;100846.47;;;7.32;94.71
17362;BME280;8798;51.938;4.348;2024-03-23T05:20:05;100855.31;;;7.33;95.08
17362;BME280;8798;51.938;4.348;2024-03-23T05:22:35;100843.06;;;7.30;94.38
17362;BME280;8798;51.938;4.348;2024-03-23T05:25:02;100858.84;;;7.33;94.79
17362;BME280;8798;51.938;4.348;2024-03-23T05:27:32;100875.47;;;7.37;94.90
17362;BME280;8798;51.938;4.348;2024-03-23T05:29:59;100883.34;;;7.39;95.66
17362;BME280;8798;51.938;4.348;2024-03-23T05:32:30;100871.94;;;7.37;95.22
17362;BME280;8798;51.938;4.348;2024-03-23T05:35:00;100881.66;;;7.38;95.45
17362;BME280;8798;51.938;4.348;2024-03-23T05:37:28;100876.31;;;7.38;94.86
17362;BME280;8798;51.938;4.348;2024-03-23T05:39:56;100881.66;;;7.38;95.09
17362;BME280;8798;51.938;4.348;2024-03-23T05:42:22;100873.75;;;7.36;95.42
17362;BME280;8798;51.938;4.348;2024-03-23T05:44:49;100861.50;;;7.33;95.09
17362;BME280;8798;51.938;4.348;2024-03-23T05:47:15;100866.00;;;7.33;95.62
17362;BME280;8798;51.938;4.348;2024-03-23T05:49:46;100857.28;;;7.31;94.66
17362;BME280;8798;51.938;4.348;2024-03-23T05:52:13;100860.09;;;7.29;94.60
17362;BME280;8798;51.938;4.348;2024-03-23T05:54:40;100857.44;;;7.29;95.20
17362;BME280;8798;51.938;4.348;2024-03-23T05:57:06;100867.13;;;7.30;95.29
17362;BME280;8798;51.938;4.348;2024-03-23T05:59:33;100854.03;;;7.27;94.83
17362;BME280;8798;51.938;4.348;2024-03-23T06:01:59;100848.69;;;7.27;95.32
17362;BME280;8798;51.938;4.348;2024-03-23T06:04:26;100864.44;;;7.30;95.33
17362;BME280;8798;51.938;4.348;2024-03-23T06:06:53;100867.13;;;7.30;95.04
17362;BME280;8798;51.938;4.348;2024-03-23T06:09:20;100879.38;;;7.33;94.75
17362;BME280;8798;51.938;4.348;2024-03-23T06:11:46;100885.56;;;7.33;95.37
17362;BME280;8798;51.938;4.348;2024-03-23T06:14:13;100890.06;;;7.33;95.25
17362;BME280;8798;51.938;4.348;2024-03-23T06:16:39;100891.06;;;7.32;94.88
17362;BME280;8798;51.938;4.348;2024-03-23T06:19:06;100897.97;;;7.35;95.44
17362;BME280;8798;51.938;4.348;2024-03-23T06:21:32;100904.00;;;7.37;94.57
17362;BME280;8798;51.938;4.348;2024-03-23T06:24:00;100908.38;;;7.38;94.63
17362;BME280;8798;51.938;4.348;2024-03-23T06:26:26;100924.16;;;7.41;95.74
17362;BME280;8798;51.938;4.348;2024-03-23T06:28:53;100949.50;;;7.46;95.24
17362;BME280;8798;51.938;4.348;2024-03-23T06:31:19;100965.16;;;7.51;95.30
17362;BME280;8798;51.938;4.348;2024-03-23T06:33:46;100992.34;;;7.56;94.93
17362;BME280;8798;51.938;4.348;2024-03-23T06:36:12;100995.75;;;7.58;95.31
17362;BME280;8798;51.938;4.348;2024-03-23T06:38:39;100999.25;;;7.59;95.32
17362;BME280;8798;51.938;4.348;2024-03-23T06:41:06;100994.06;;;7.57;94.68
17362;BME280;8798;51.938;4.348;2024-03-23T06:43:33;100986.16;;;7.56;95.24
17362;BME280;8798;51.938;4.348;2024-03-23T06:45:59;100987.00;;;7.56;95.15
17362;BME280;8798;51.938;4.348;2024-03-23T06:48:26;100993.19;;;7.57;95.29
17362;BME280;8798;51.938;4.348;2024-03-23T06:50:55;101002.06;;;7.57;94.85
17362;BME280;8798;51.938;4.348;2024-03-23T06:53:23;101011.50;;;7.61;95.47
17362;BME280;8798;51.938;4.348;2024-03-23T06:55:50;101023.78;;;7.64;94.90
17362;BME280;8798;51.938;4.348;2024-03-23T06:58:19;101038.59;;;7.68;94.61
17362;BME280;8798;51.938;4.348;2024-03-23T07:00:45;101047.19;;;7.71;95.15
17362;BME280;8798;51.938;4.348;2024-03-23T07:03:12;101053.41;;;7.72;95.35
17362;BME280;8798;51.938;4.348;2024-03-23T07:05:38;101070.03;;;7.75;94.77
17362;BME280;8798;51.938;4.348;2024-03-23T07:08:05;101076.09;;;7.78;94.97
17362;BME280;8798;51.938;4.348;2024-03-23T07:10:34;101082.44;;;7.77;95.36
17362;BME280;8798;51.938;4.348;2024-03-23T07:13:03;101067.34;;;7.75;95.11
17362;BME280;8798;51.938;4.348;2024-03-23T07:15:30;101091.03;;;7.80;95.29
17362;BME280;8798;51.938;4.348;2024-03-23T07:18:00;101137.16;;;7.93;94.61
17362;BME280;8798;51.938;4.348;2024-03-23T07:20:26;101194.03;;;8.07;94.78
17362;BME280;8798;51.938;4.348;2024-03-23T07:22:55;101230.75;;;8.16;95.39
17362;BME280;8798;51.938;4.348;2024-03-23T07:25:21;101239.47;;;8.18;94.99
17362;BME280;8798;51.938;4.348;2024-03-23T07:27:49;101235.13;;;8.17;95.25
17362;BME280;8798;51.938;4.348;2024-03-23T07:30:15;101246.41;;;8.21;94.86
17362;BME280;8798;51.938;4.348;2024-03-23T07:32:45;101241.03;;;8.21;95.32
17362;BME280;8798;51.938;4.348;2024-03-23T07:35:11;101250.78;;;8.22;95.33
17362;BME280;8798;51.938;4.348;2024-03-23T07:37:38;101238.38;;;8.21;95.20
17362;BME280;8798;51.938;4.348;2024-03-23T07:40:05;101245.44;;;8.22;95.32
17362;BME280;8798;51.938;4.348;2024-03-23T07:42:32;101261.81;;;8.28;95.35
17362;BME280;8798;51.938;4.348;2024-03-23T07:44:58;101285.41;;;8.34;94.79
17362;BME280;8798;51.938;4.348;2024-03-23T07:47:25;101317.78;;;8.43;95.16
17362;BME280;8798;51.938;4.348;2024-03-23T07:49:53;101337.88;;;8.48;95.40
17362;BME280;8798;51.938;4.348;2024-03-23T07:52:20;101351.09;;;8.50;94.90
17362;BME280;8798;51.938;4.348;2024-03-23T07:54:47;101348.31;;;8.51;95.47
17362;BME280;8798;51.938;4.348;2024-03-23T07:57:14;101314.00;;;8.45;94.93
17362;BME280;8798;51.938;4.348;2024-03-23T07:59:40;101302.81;;;8.40;94.79
17362;BME280;8798;51.938;4.348;2024-03-23T08:02:07;101305.97;;;8.45;95.00
17362;BME280;8798;51.938;4.348;2024-03-23T08:04:33;101336.63;;;8.52;95.29
17362;BME280;8798;51.938;4.348;2024-03-23T08:07:01;101339.19;;;8.54;95.32
17362;BME280;8798;51.938;4.348;2024-03-23T08:09:28;101319.81;;;8.50;94.87
17362;BME280;8798;51.938;4.348;2024-03-23T08:11:55;101291.84;;;8.43;94.82
17362;BME280;8798;51.938;4.348;2024-03-23T08:14:21;101292.72;;;8.44;95.20
17362;BME280;8798;51.938;4.348;2024-03-23T08:16:48;101285.66;;;8.43;95.38
17362;BME280;8798;51.938;4.348;2024-03-23T08:19:16;101298.66;;;8.47;95.11
17362;BME280;8798;51.938;4.348;2024-03-23T08:21:43;101314.47;;;8.50;95.03
17362;BME280;8798;51.938;4.348;2024-03-23T08:24:10;101345.84;;;8.59;95.14
17362;BME280;8798;51.938;4.348;2024-03-23T08:26:38;101360.69;;;8.64;95.07
17362;BME280;8798;51.938;4.348;2024-03-23T08:29:04;101362.38;;;8.65;95.09
17362;BME280;8798;51.938;4.348;2024-03-23T08:31:31;101346.47;;;8.63;95.17
17362;BME280;8798;51.938;4.348;2024-03-23T08:33:57;101351.66;;;8.65;95.35
17362;BME280;8798;51.938;4.348;2024-03-23T08:36:24;101369.19;;;8.69;94.90
17362;BME280;8798;51.938;4.348;2024-03-23T08:38:50;101363.84;;;8.69;94.79
17362;BME280;8798;51.938;4.348;2024-03-23T08:41:20;101348.88;;;8.66;94.92
17362;BME280;8798;51.938;4.348;2024-03-23T08:43:46;101350.44;;;8.69;94.71
17362;BME280;8798;51.938;4.348;2024-03-23T08:46:15;101362.59;;;8.73;95.05
17362;BME280;8798;51.938;4.348;2024-03-23T08:48:42;101359.06;;;8.72;95.25
17362;BME280;8798;51.938;4.348;2024-03-23T08:51:10;101366.16;;;8.73;95.32
17362;BME280;8798;51.938;4.348;2024-03-23T08:53:37;101364.03;;;8.77;94.94
17362;BME280;8798;51.938;4.348;2024-03-23T08:56:05;101379.00;;;8.79;95.23
17362;BME280;8798;51.938;4.348;2024-03-23T08:58:33;101394.81;;;8.82;95.13
17362;BME280;8798;51.938;4.348;2024-03-23T09:01:03;101381.56;;;8.81;95.34
17362;BME280;8798;51.938;4.348;2024-03-23T09:03:30;101392.03;;;8.84;95.10
17362;BME280;8798;51.938;4.348;2024-03-23T09:05:57;101437.41;;;8.97;94.97
17362;BME280;8798;51.938;4.348;2024-03-23T09:08:24;101481.09;;;9.09;94.95
17362;BME280;8798;51.938;4.348;2024-03-23T09:10:52;101513.47;;;9.17;95.02
17362;BME280;8798;51.938;4.348;2024-03-23T09:13:18;101552.94;;;9.26;94.75
17362;BME280;8798;51.938;4.348;2024-03-23T09:15:51;101622.13;;;9.43;95.14
17362;BME280;8798;51.938;4.348;2024-03-23T09:18:19;101697.44;;;9.63;94.90
17362;BME280;8798;51.938;4.348;2024-03-23T09:20:46;101731.19;;;9.77;94.91
17362;BME280;8798;51.938;4.348;2024-03-23T09:23:12;101725.94;;;9.75;95.17
17362;BME280;8798;51.938;4.348;2024-03-23T09:25:40;101703.00;;;9.71;95.05
17362;BME280;8798;51.938;4.348;2024-03-23T09:28:06;101717.78;;;9.77;95.09
17362;BME280;8798;51.938;4.348;2024-03-23T09:30:34;101697.38;;;9.74;95.00
17362;BME280;8798;51.938;4.348;2024-03-23T09:33:02;101662.19;;;9.67;94.92
17362;BME280;8798;51.938;4.348;2024-03-23T09:35:29;101696.16;;;9.78;95.40
17362;BME280;8798;51.938;4.348;2024-03-23T09:37:55;101783.84;;;10.00;94.94
17362;BME280;8798;51.938;4.348;2024-03-23T09:40:22;101873.50;;;10.20;94.84
17362;BME280;8798;51.938;4.348;2024-03-23T09:42:51;101918.81;;;10.36;95.04
17362;BME280;8798;51.938;4.348;2024-03-23T09:45:21;101937.94;;;10.43;94.81
17362;BME280;8798;51.938;4.348;2024-03-23T09:47:48;101887.66;;;10.33;94.84
17362;BME280;8798;51.938;4.348;2024-03-23T09:50:17;101833.84;;;10.24;94.65
17362;BME280;8798;51.938;4.348;2024-03-23T09:52:45;101781.00;;;10.13;94.43
17362;BME280;8798;51.938;4.348;2024-03-23T09:55:12;101761.63;;;10.09;95.05
17362;BME280;8798;51.938;4.348;2024-03-23T09:57:39;101792.22;;;10.18;95.15
17362;BME280;8798;51.938;4.348;2024-03-23T10:00:07;101774.41;;;10.17;94.77
17362;BME280;8798;51.938;4.348;2024-03-23T10:02:34;101785.63;;;10.22;95.06
17362;BME280;8798;51.938;4.348;2024-03-23T10:05:01;101799.53;;;10.27;94.70
17362;BME280;8798;51.938;4.348;2024-03-23T10:07:28;101826.50;;;10.37;95.14
17362;BME280;8798;51.938;4.348;2024-03-23T10:09:56;101874.84;;;10.48;94.93
17362;BME280;8798;51.938;4.348;2024-03-23T10:12:23;101899.97;;;10.59;95.02
17362;BME280;8798;51.938;4.348;2024-03-23T10:14:50;101954.28;;;10.73;94.88
17362;BME280;8798;51.938;4.348;2024-03-23T10:17:17;102013.84;;;10.90;94.50
17362;BME280;8798;51.938;4.348;2024-03-23T10:19:45;102050.50;;;11.02;94.74
17362;BME280;8798;51.938;4.348;2024-03-23T10:22:14;102057.34;;;11.06;95.06
17362;BME280;8798;51.938;4.348;2024-03-23T10:24:43;102078.13;;;11.15;94.54
17362;BME280;8798;51.938;4.348;2024-03-23T10:27:09;102114.88;;;11.26;94.92
17362;BME280;8798;51.938;4.348;2024-03-23T10:29:36;102143.75;;;11.35;94.95
17362;BME280;8798;51.938;4.348;2024-03-23T10:32:08;102176.84;;;11.47;94.86
17362;BME280;8798;51.938;4.348;2024-03-23T10:34:36;102223.31;;;11.60;94.35
17362;BME280;8798;51.938;4.348;2024-03-23T10:37:02;102256.47;;;11.72;95.04
17362;BME280;8798;51.938;4.348;2024-03-23T10:39:33;102264.88;;;11.79;94.68
17362;BME280;8798;51.938;4.348;2024-03-23T10:42:03;102234.78;;;11.74;94.63
17362;BME280;8798;51.938;4.348;2024-03-23T10:44:30;102168.38;;;11.63;94.67
17362;BME280;8798;51.938;4.348;2024-03-23T10:46:57;102147.13;;;11.60;94.73
17362;BME280;8798;51.938;4.348;2024-03-23T10:49:27;102147.59;;;11.65;94.76
17362;BME280;8798;51.938;4.348;2024-03-23T10:51:56;102144.75;;;11.67;94.65
17362;BME280;8798;51.938;4.348;2024-03-23T10:54:24;102140.84;;;11.71;94.63
17362;BME280;8798;51.938;4.348;2024-03-23T10:56:53;102162.59;;;11.79;95.03
17362;BME280;8798;51.938;4.348;2024-03-23T10:59:24;102208.22;;;11.92;94.52
17362;BME280;8798;51.938;4.348;2024-03-23T11:01:54;102200.03;;;11.93;94.45
17362;BME280;8798;51.938;4.348;2024-03-23T11:04:30;102193.69;;;11.94;94.81
17362;BME280;8798;51.938;4.348;2024-03-23T11:06:56;102212.75;;;12.02;94.22
17362;BME280;8798;51.938;4.348;2024-03-23T11:09:41;102252.88;;;12.17;94.58
17362;BME280;8798;51.938;4.348;2024-03-23T11:12:40;102309.75;;;12.35;94.74
17362;BME280;8798;51.938;4.348;2024-03-23T11:15:11;102343.03;;;12.45;94.47
17362;BME280;8798;51.938;4.348;2024-03-23T11:17:38;102315.34;;;12.43;94.20
17362;BME280;8798;51.938;4.348;2024-03-23T11:20:06;102296.38;;;12.44;94.23
17362;BME280;8798;51.938;4.348;2024-03-23T11:22:39;102288.28;;;12.44;94.71
17362;BME280;8798;51.938;4.348;2024-03-23T11:25:13;102254.47;;;12.40;94.65
17362;BME280;8798;51.938;4.348;2024-03-23T11:27:40;102249.69;;;12.44;94.40
17362;BME280;8798;51.938;4.348;2024-03-23T11:30:12;102212.34;;;12.39;94.57
17362;BME280;8798;51.938;4.348;2024-03-23T11:32:40;102216.47;;;12.43;94.18
17362;BME280;8798;51.938;4.348;2024-03-23T11:35:06;102188.09;;;12.39;94.78
17362;BME280;8798;51.938;4.348;2024-03-23T11:37:42;102109.28;;;12.26;94.56
17362;BME280;8798;51.938;4.348;2024-03-23T11:40:18;102072.09;;;12.20;94.57
17362;BME280;8798;51.938;4.348;2024-03-23T11:42:45;102033.22;;;12.13;94.30
17362;BME280;8798;51.938;4.348;2024-03-23T11:45:13;101978.28;;;12.04;94.76
17362;BME280;8798;51.938;4.348;2024-03-23T11:47:41;101939.28;;;11.98;94.27
17362;BME280;8798;51.938;4.348;2024-03-23T11:50:08;101916.19;;;11.96;94.29
17362;BME280;8798;51.938;4.348;2024-03-23T11:52:36;101937.75;;;12.05;94.66
17362;BME280;8798;51.938;4.348;2024-03-23T11:55:05;102014.13;;;12.25;94.32
17362;BME280;8798;51.938;4.348;2024-03-23T11:57:34;102102.06;;;12.47;94.12
17362;BME280;8798;51.938;4.348;2024-03-23T12:00:00;102106.19;;;12.52;94.17
17362;BME280;8798;51.938;4.348;2024-03-23T12:02:28;102107.78;;;12.54;94.91
17362;BME280;8798;51.938;4.348;2024-03-23T12:04:54;102158.50;;;12.70;94.19
17362;BME280;8798;51.938;4.348;2024-03-23T12:07:21;102197.75;;;12.84;94.49
17362;BME280;8798;51.938;4.348;2024-03-23T12:10:02;102239.84;;;12.96;94.13
17362;BME280;8798;51.938;4.348;2024-03-23T12:12:29;102255.38;;;13.04;94.12
17362;BME280;8798;51.938;4.348;2024-03-23T12:15:01;102211.75;;;12.99;94.48
17362;BME280;8798;51.938;4.348;2024-03-23T12:17:30;102097.78;;;12.76;94.24
17362;BME280;8798;51.938;4.348;2024-03-23T12:19:57;102028.78;;;12.63;94.08
17362;BME280;8798;51.938;4.348;2024-03-23T12:22:25;101964.19;;;12.52;94.61
17362;BME280;8798;51.938;4.348;2024-03-23T12:24:51;101914.66;;;12.43;94.20
17362;BME280;8798;51.938;4.348;2024-03-23T12:27:18;101861.72;;;12.33;93.90
17362;BME280;8798;51.938;4.348;2024-03-23T12:29:44;101853.53;;;12.34;94.29
17362;BME280;8798;51.938;4.348;2024-03-23T12:32:13;101866.59;;;12.39;94.24
17362;BME280;8798;51.938;4.348;2024-03-23T12:34:40;101824.84;;;12.33;93.96
17362;BME280;8798;51.938;4.348;2024-03-23T12:37:07;101794.78;;;12.28;93.98
17362;BME280;8798;51.938;4.348;2024-03-23T12:39:33;101847.28;;;12.43;93.74
17362;BME280;8798;51.938;4.348;2024-03-23T12:42:01;101918.41;;;12.62;94.21
17362;BME280;8798;51.938;4.348;2024-03-23T12:44:28;101941.84;;;12.71;93.88
17362;BME280;8798;51.938;4.348;2024-03-23T12:46:55;102004.88;;;12.89;94.22
17362;BME280;8798;51.938;4.348;2024-03-23T12:49:21;102027.50;;;12.98;94.00
17362;BME280;8798;51.938;4.348;2024-03-23T12:51:54;102024.78;;;12.98;93.87
17362;BME280;8798;51.938;4.348;2024-03-23T12:54:20;101963.59;;;12.89;94.16
17362;BME280;8798;51.938;4.348;2024-03-23T12:56:47;101889.31;;;12.75;93.65
17362;BME280;8798;51.938;4.348;2024-03-23T12:59:13;101853.84;;;12.70;93.74
17362;BME280;8798;51.938;4.348;2024-03-23T13:01:40;101810.56;;;12.62;93.75
17362;BME280;8798;51.938;4.348;2024-03-23T13:04:06;101774.41;;;12.55;94.07
17362;BME280;8798;51.938;4.348;2024-03-23T13:06:33;101738.94;;;12.50;93.87
17362;BME280;8798;51.938;4.348;2024-03-23T13:09:01;101750.00;;;12.56;93.68
17362;BME280;8798;51.938;4.348;2024-03-23T13:11:29;101720.78;;;12.52;94.04
17362;BME280;8798;51.938;4.348;2024-03-23T13:13:55;101707.56;;;12.48;93.59
17362;BME280;8798;51.938;4.348;2024-03-23T13:16:22;101724.03;;;12.55;94.18
17362;BME280;8798;51.938;4.348;2024-03-23T13:18:48;101699.06;;;12.53;93.79
17362;BME280;8798;51.938;4.348;2024-03-23T13:21:15;101630.31;;;12.39;93.96
17362;BME280;8798;51.938;4.348;2024-03-23T13:23:42;101564.25;;;12.25;93.92
17362;BME280;8798;51.938;4.348;2024-03-23T13:26:12;101518.47;;;12.16;93.57
17362;BME280;8798;51.938;4.348;2024-03-23T13:28:38;101449.09;;;12.00;93.75
17362;BME280;8798;51.938;4.348;2024-03-23T13:31:05;101390.00;;;11.89;93.50
17362;BME280;8798;51.938;4.348;2024-03-23T13:33:31;101330.09;;;11.77;93.35
17362;BME280;8798;51.938;4.348;2024-03-23T13:35:58;101272.22;;;11.63;93.24
17362;BME280;8798;51.938;4.348;2024-03-23T13:38:24;101197.50;;;11.47;93.59
17362;BME280;8798;51.938;4.348;2024-03-23T13:40:52;101106.47;;;11.25;93.81
17362;BME280;8798;51.938;4.348;2024-03-23T13:43:20;100951.47;;;10.88;93.54
17362;BME280;8798;51.938;4.348;2024-03-23T13:45:47;100829.63;;;10.61;93.28
17362;BME280;8798;51.938;4.348;2024-03-23T13:48:14;100741.47;;;10.39;93.26
17362;BME280;8798;51.938;4.348;2024-03-23T13:50:41;100650.59;;;10.16;93.59
17362;BME280;8798;51.938;4.348;2024-03-23T13:53:07;100567.72;;;9.95;93.59
17362;BME280;8798;51.938;4.348;2024-03-23T13:55:34;100543.34;;;9.88;93.55
17362;BME280;8798;51.938;4.348;2024-03-23T13:58:01;100592.41;;;9.99;93.30
17362;BME280;8798;51.938;4.348;2024-03-23T14:00:29;100669.38;;;10.16;93.40
17362;BME280;8798;51.938;4.348;2024-03-23T14:02:58;100752.66;;;10.34;93.31